< < Back
Terminal Aerodrome Forecast


Current Version              Previous Versions:   1  2  3  4  5  6  7  8  9  

Terminal Aerodrome Forecast

337
FTAK31 PAJN 221100
TAFAHN
TAF
PAHN 221140Z 2212/2312 30008KT P6SM SCT140
     FM221800 VRB04KT P6SM FEW100
     FM222000 13007KT P6SM FEW100
     FM230400 VRB04KT P6SM SCT100
     FM230900 30008KT P6SM BKN100
      AMD LTD TO CLD VIS AND WIND=



Latest METAR

382
SAUS70 KWBC 221600
MTRAHN
METAR KAHN 221551Z VRB03KT 10SM CLR 22/09 A3023 RMK AO2 SLP232
T02170089


USA.gov is the U.S. government's official web portal to all federal, state and local government web resources and services.